createdAt,value
2023-03-29T00:02:32.392Z,100864.06
2023-03-29T00:05:38.800Z,100871.94
2023-03-29T00:08:42.441Z,100870.97
2023-03-29T00:11:46.089Z,100870.19
2023-03-29T00:14:48.801Z,100868.50
2023-03-29T00:17:51.843Z,100862.50
2023-03-29T00:20:56.548Z,100877.34
2023-03-29T00:23:59.349Z,100877.53
2023-03-29T00:27:02.685Z,100879.44
2023-03-29T00:30:07.882Z,100879.44
2023-03-29T00:33:11.866Z,100873.34
2023-03-29T00:36:16.068Z,100870.69
2023-03-29T00:39:20.609Z,100865.50
2023-03-29T00:42:24.827Z,100871.03
2023-03-29T00:45:31.649Z,100866.53
2023-03-29T00:48:34.687Z,100875.94
2023-03-29T00:51:39.580Z,100873.50
2023-03-29T00:54:44.872Z,100870.94
2023-03-29T00:57:49.332Z,100873.69
2023-03-29T01:01:08.786Z,100874.75
2023-03-29T01:04:22.363Z,100875.72
2023-03-29T01:07:36.049Z,100866.28
2023-03-29T01:10:45.559Z,100864.53
2023-03-29T01:14:10.678Z,100857.94
2023-03-29T01:17:13.512Z,100854.56
2023-03-29T01:20:34.443Z,100854.47
2023-03-29T01:24:06.851Z,100854.56
2023-03-29T01:27:47.467Z,100847.31
2023-03-29T01:30:56.266Z,100851.38
2023-03-29T01:34:10.083Z,100849.72
2023-03-29T01:37:26.594Z,100848.31
2023-03-29T01:40:31.116Z,100850.06
2023-03-29T01:43:41.128Z,100856.84
2023-03-29T01:46:47.475Z,100852.72
2023-03-29T01:49:53.331Z,100856.22
2023-03-29T01:53:07.794Z,100856.38
2023-03-29T01:56:18.027Z,100859.19
2023-03-29T01:59:26.327Z,100865.31
2023-03-29T02:02:31.883Z,100861.94
2023-03-29T02:05:37.139Z,100849.66
2023-03-29T02:08:41.759Z,100857.34
2023-03-29T02:11:45.439Z,100854.97
2023-03-29T02:14:48.343Z,100860.06
2023-03-29T02:17:51.465Z,100860.19
2023-03-29T02:20:57.495Z,100850.81
2023-03-29T02:24:06.363Z,100846.56
2023-03-29T02:27:09.254Z,100850.81
2023-03-29T02:30:14.574Z,100849.31
2023-03-29T02:33:22.156Z,100848.44
2023-03-29T02:37:01.296Z,100855.41
2023-03-29T02:40:12.589Z,100857.22
2023-03-29T02:43:16.687Z,100863.41
2023-03-29T02:46:21.060Z,100866.00
2023-03-29T02:49:25.006Z,100867.06
2023-03-29T02:52:34.245Z,100871.44
2023-03-29T02:55:39.040Z,100871.31
2023-03-29T02:58:42.002Z,100876.50
2023-03-29T03:01:45.237Z,100879.28
2023-03-29T03:04:48.531Z,100881.84
2023-03-29T03:07:51.576Z,100874.94
2023-03-29T03:10:54.459Z,100881.97
2023-03-29T03:13:57.298Z,100887.97
2023-03-29T03:17:03.844Z,100887.16
2023-03-29T03:20:13.099Z,100886.09
2023-03-29T03:23:18.833Z,100887.91
2023-03-29T03:26:22.460Z,100883.69
2023-03-29T03:29:26.134Z,100888.75
2023-03-29T03:32:32.689Z,100886.12
2023-03-29T03:35:38.683Z,100887.81
2023-03-29T03:38:44.656Z,100891.00
2023-03-29T03:41:47.831Z,100887.56
2023-03-29T03:44:52.121Z,100892.91
2023-03-29T03:47:55.295Z,100885.94
2023-03-29T03:50:59.323Z,100889.56
2023-03-29T03:54:05.032Z,100894.81
2023-03-29T03:57:08.869Z,100898.22
2023-03-29T04:00:19.625Z,100901.66
2023-03-29T04:03:24.143Z,100904.31
2023-03-29T04:06:30.537Z,100904.31
2023-03-29T04:09:35.681Z,100900.75
2023-03-29T04:12:40.041Z,100899.91
2023-03-29T04:15:46.229Z,100901.69
2023-03-29T04:18:50.073Z,100900.06
2023-03-29T04:21:53.200Z,100897.53
2023-03-29T04:24:56.271Z,100891.63
2023-03-29T04:28:01.432Z,100888.28
2023-03-29T04:31:04.942Z,100891.53
2023-03-29T04:34:08.395Z,100893.19
2023-03-29T04:37:11.113Z,100891.13
2023-03-29T04:40:15.037Z,100893.34
2023-03-29T04:43:18.872Z,100900.66
2023-03-29T04:46:26.478Z,100898.47
2023-03-29T04:49:31.188Z,100898.81
2023-03-29T04:52:35.029Z,100896.62
2023-03-29T04:55:38.177Z,100898.31
2023-03-29T04:58:42.288Z,100910.19
2023-03-29T05:01:45.788Z,100905.38
2023-03-29T05:04:48.898Z,100906.41
2023-03-29T05:07:54.963Z,100916.34
2023-03-29T05:10:58.359Z,100925.78
2023-03-29T05:14:03.384Z,100923.44
2023-03-29T05:17:06.645Z,100914.75
2023-03-29T05:20:10.321Z,100919.75
2023-03-29T05:23:13.881Z,100918.28
2023-03-29T05:26:22.349Z,100917.59
2023-03-29T05:29:25.522Z,100920.94
2023-03-29T05:32:29.029Z,100914.00
2023-03-29T05:35:32.355Z,100921.03
2023-03-29T05:38:35.931Z,100919.69
2023-03-29T05:41:39.629Z,100920.78
2023-03-29T05:44:48.592Z,100923.50
2023-03-29T05:47:52.138Z,100914.91
2023-03-29T05:50:56.447Z,100919.47
2023-03-29T05:53:59.613Z,100924.81
2023-03-29T05:57:02.379Z,100920.91
2023-03-29T06:00:20.162Z,100929.00
2023-03-29T06:03:28.612Z,100935.41
2023-03-29T06:06:32.160Z,100931.31
2023-03-29T06:09:35.218Z,100937.75
2023-03-29T06:12:40.227Z,100932.56
2023-03-29T06:15:45.161Z,100941.91
2023-03-29T06:18:48.081Z,100941.34
2023-03-29T06:21:53.774Z,100940.41
2023-03-29T06:24:58.492Z,100942.41
2023-03-29T06:28:02.697Z,100944.34
2023-03-29T06:31:06.008Z,100944.44
2023-03-29T06:34:13.206Z,100941.19
2023-03-29T06:37:19.435Z,100948.28
2023-03-29T06:40:24.951Z,100940.28
2023-03-29T06:43:27.560Z,100950.94
2023-03-29T06:46:30.480Z,100949.69
2023-03-29T06:49:35.038Z,100946.81
2023-03-29T06:52:39.927Z,100950.59
2023-03-29T06:55:42.875Z,100956.63
2023-03-29T06:58:47.226Z,100960.00
2023-03-29T07:01:54.135Z,100956.94
2023-03-29T07:04:57.284Z,100948.19
2023-03-29T07:08:02.455Z,100957.44
2023-03-29T07:11:06.179Z,100956.69
2023-03-29T07:14:10.706Z,100962.97
2023-03-29T07:17:13.741Z,100965.87
2023-03-29T07:20:16.853Z,100967.12
2023-03-29T07:23:20.176Z,100969.44
2023-03-29T07:26:28.560Z,100979.63
2023-03-29T07:29:33.767Z,100974.22
2023-03-29T07:32:38.850Z,100977.72
2023-03-29T07:35:43.872Z,100985.78
2023-03-29T07:38:46.692Z,100986.16
2023-03-29T07:41:50.726Z,100997.59
2023-03-29T07:44:54.473Z,100994.50
2023-03-29T07:47:59.556Z,100998.19
2023-03-29T07:51:03.870Z,100991.34
2023-03-29T07:54:08.171Z,101001.53
2023-03-29T07:57:12.328Z,100996.37
2023-03-29T08:00:16.529Z,100992.69
2023-03-29T08:03:20.837Z,100986.06
2023-03-29T08:06:26.698Z,100991.19
2023-03-29T08:09:30.444Z,100999.25
2023-03-29T08:12:33.110Z,100998.19
2023-03-29T08:15:39.195Z,100985.53
2023-03-29T08:18:43.546Z,100991.53
2023-03-29T08:21:47.988Z,100977.59
2023-03-29T08:24:51.377Z,100986.59
2023-03-29T08:27:54.517Z,100976.94
2023-03-29T08:30:57.997Z,100987.28
2023-03-29T08:34:01.185Z,100981.72
2023-03-29T08:37:05.460Z,100978.22
2023-03-29T08:40:17.555Z,100984.22
2023-03-29T08:43:28.685Z,100977.59
2023-03-29T08:47:12.767Z,100973.34
2023-03-29T08:50:18.352Z,100982.50
2023-03-29T08:53:34.578Z,100979.37
2023-03-29T08:56:40.631Z,100973.59
2023-03-29T08:59:45.735Z,100975.53
2023-03-29T09:02:53.957Z,100971.63
2023-03-29T09:06:03.940Z,100967.72
2023-03-29T09:09:15.244Z,100964.09
2023-03-29T09:12:59.388Z,100956.53
2023-03-29T09:16:25.014Z,100958.47
2023-03-29T09:19:45.451Z,100940.31
2023-03-29T09:23:28.517Z,100934.34
2023-03-29T09:26:49.252Z,100928.78
2023-03-29T09:30:14.563Z,100932.66
2023-03-29T09:33:23.837Z,100928.47
2023-03-29T09:36:48.162Z,100937.16
2023-03-29T09:39:53.199Z,100929.88
2023-03-29T09:42:58.554Z,100931.72
2023-03-29T09:46:15.953Z,100923.66
2023-03-29T09:49:24.915Z,100924.28
2023-03-29T09:52:28.187Z,100916.59
2023-03-29T09:55:34.072Z,100922.81
2023-03-29T09:58:38.051Z,100916.56
2023-03-29T10:01:45.628Z,100912.19
2023-03-29T10:05:04.479Z,100914.69
2023-03-29T10:08:27.309Z,100906.00
2023-03-29T10:11:34.831Z,100902.47
2023-03-29T10:14:42.612Z,100899.28
2023-03-29T10:17:46.374Z,100891.03
2023-03-29T10:20:49.236Z,100892.13
2023-03-29T10:23:59.388Z,100892.97
2023-03-29T10:27:06.898Z,100884.94
2023-03-29T10:30:22.331Z,100873.66
2023-03-29T10:33:30.066Z,100875.78
2023-03-29T10:36:33.374Z,100868.38
2023-03-29T10:39:36.652Z,100862.66
2023-03-29T10:42:48.082Z,100861.91
2023-03-29T10:45:53.843Z,100862.50
2023-03-29T10:49:06.203Z,100863.25
2023-03-29T10:52:09.541Z,100860.50
2023-03-29T10:55:14.017Z,100861.19
2023-03-29T10:58:30.167Z,100860.87
2023-03-29T11:01:45.909Z,100845.38
2023-03-29T11:05:06.127Z,100848.88
2023-03-29T11:08:18.517Z,100845.94
2023-03-29T11:11:36.449Z,100846.63
2023-03-29T11:15:09.834Z,100840.44
2023-03-29T11:18:12.316Z,100838.34
2023-03-29T11:21:48.228Z,100838.28
2023-03-29T11:25:10.244Z,100826.00
2023-03-29T11:28:24.125Z,100827.22
2023-03-29T11:31:48.497Z,100814.91
2023-03-29T11:34:57.401Z,100820.88
2023-03-29T11:38:11.091Z,100823.75
2023-03-29T11:41:27.603Z,100824.53
2023-03-29T11:44:31.611Z,100810.91
2023-03-29T11:47:40.510Z,100800.81
2023-03-29T11:50:51.994Z,100801.62
2023-03-29T11:54:13.474Z,100807.19
2023-03-29T11:57:29.166Z,100793.22
2023-03-29T12:00:44.933Z,100793.63
2023-03-29T12:03:55.852Z,100799.47
2023-03-29T12:07:01.911Z,100795.22
2023-03-29T12:10:31.540Z,100787.00
2023-03-29T12:13:44.726Z,100794.84
2023-03-29T12:16:53.384Z,100789.31
2023-03-29T12:20:07.700Z,100779.59
2023-03-29T12:23:16.729Z,100768.94
2023-03-29T12:26:40.579Z,100764.50
2023-03-29T12:30:01.698Z,100760.69
2023-03-29T12:33:07.868Z,100761.56
2023-03-29T12:36:57.420Z,100757.72
2023-03-29T12:40:13.229Z,100750.13
2023-03-29T12:43:32.245Z,100752.13
2023-03-29T12:46:36.104Z,100749.47
2023-03-29T12:49:39.412Z,100744.22
2023-03-29T12:52:42.922Z,100749.72
2023-03-29T12:55:53.994Z,100741.34
2023-03-29T12:58:59.637Z,100740.62
2023-03-29T13:02:14.082Z,100732.28
2023-03-29T13:05:38.114Z,100735.94
2023-03-29T13:08:43.470Z,100746.31
2023-03-29T13:11:52.606Z,100750.00
2023-03-29T13:15:02.467Z,100744.00
2023-03-29T13:18:33.918Z,100748.41
2023-03-29T13:21:39.716Z,100730.94
2023-03-29T13:25:06.220Z,100735.78
2023-03-29T13:28:24.425Z,100728.81
2023-03-29T13:31:46.792Z,100720.12
2023-03-29T13:34:57.846Z,100717.19
2023-03-29T13:38:22.049Z,100707.19
2023-03-29T13:41:40.121Z,100714.19
2023-03-29T13:44:45.585Z,100707.91
2023-03-29T13:47:58.741Z,100714.47
2023-03-29T13:51:27.253Z,100699.69
2023-03-29T13:54:39.770Z,100704.44
2023-03-29T13:57:51.059Z,100702.63
2023-03-29T14:01:17.143Z,100691.16
2023-03-29T14:04:25.664Z,100687.75
2023-03-29T14:07:30.518Z,100683.34
2023-03-29T14:10:45.278Z,100688.56
2023-03-29T14:13:47.909Z,100678.50
2023-03-29T14:16:51.288Z,100684.19
2023-03-29T14:19:58.076Z,100683.06
2023-03-29T14:23:01.122Z,100686.97
2023-03-29T14:26:14.411Z,100671.34
2023-03-29T14:29:18.318Z,100675.44
2023-03-29T14:32:30.587Z,100669.19
2023-03-29T14:35:33.684Z,100667.00
2023-03-29T14:38:37.750Z,100665.31
2023-03-29T14:41:54.800Z,100664.47
2023-03-29T14:45:09.362Z,100659.59
2023-03-29T14:48:13.445Z,100661.16
2023-03-29T14:51:16.313Z,100654.47
2023-03-29T14:54:34.130Z,100654.69
2023-03-29T14:57:37.890Z,100657.13
2023-03-29T15:00:45.274Z,100662.59
2023-03-29T15:04:04.588Z,100655.59
2023-03-29T15:07:09.242Z,100665.19
2023-03-29T15:10:19.281Z,100654.66
2023-03-29T15:13:24.652Z,100660.13
2023-03-29T15:16:30.399Z,100652.69
2023-03-29T15:19:34.397Z,100653.03
2023-03-29T15:22:38.608Z,100650.63
2023-03-29T15:25:53.398Z,100642.31
2023-03-29T15:29:13.447Z,100637.03
2023-03-29T15:32:22.632Z,100637.28
2023-03-29T15:35:27.222Z,100644.16
2023-03-29T15:38:40.847Z,100639.59
2023-03-29T15:41:51.878Z,100635.78
2023-03-29T15:44:56.416Z,100635.47
2023-03-29T15:48:02.073Z,100622.28
2023-03-29T15:51:06.671Z,100626.09
2023-03-29T15:54:09.905Z,100616.13
2023-03-29T15:57:15.607Z,100620.37
2023-03-29T16:00:21.125Z,100611.78
2023-03-29T16:03:24.846Z,100624.22
2023-03-29T16:06:27.784Z,100615.16
2023-03-29T16:09:30.879Z,100609.38
2023-03-29T16:12:36.004Z,100607.25
2023-03-29T16:15:41.435Z,100615.25
2023-03-29T16:18:46.984Z,100604.62
2023-03-29T16:21:50.961Z,100596.84
2023-03-29T16:24:53.973Z,100601.06
2023-03-29T16:27:56.976Z,100604.59
2023-03-29T16:31:00.121Z,100604.19
2023-03-29T16:34:04.996Z,100601.56
2023-03-29T16:37:07.669Z,100600.13
2023-03-29T16:40:12.509Z,100598.66
2023-03-29T16:43:16.391Z,100589.22
2023-03-29T16:46:19.632Z,100579.34
2023-03-29T16:49:22.492Z,100591.03
2023-03-29T16:52:27.020Z,100597.03
2023-03-29T16:55:29.979Z,100599.69
2023-03-29T16:58:33.486Z,100605.16
2023-03-29T17:01:36.831Z,100599.59
2023-03-29T17:04:40.084Z,100590.28
2023-03-29T17:07:43.376Z,100600.63
2023-03-29T17:10:51.643Z,100595.28
2023-03-29T17:13:55.268Z,100599.87
2023-03-29T17:16:58.947Z,100597.16
2023-03-29T17:20:01.966Z,100598.19
2023-03-29T17:23:06.074Z,100594.34
2023-03-29T17:26:09.259Z,100597.34
2023-03-29T17:29:13.040Z,100594.53
2023-03-29T17:32:16.358Z,100597.25
2023-03-29T17:35:22.529Z,100596.66
2023-03-29T17:38:26.770Z,100607.38
2023-03-29T17:41:31.039Z,100607.75
2023-03-29T17:44:34.349Z,100609.81
2023-03-29T17:47:39.103Z,100617.38
2023-03-29T17:50:43.388Z,100621.88
2023-03-29T17:53:47.061Z,100617.69
2023-03-29T17:56:50.704Z,100618.94
2023-03-29T17:59:54.712Z,100626.91
2023-03-29T18:02:58.207Z,100625.16
2023-03-29T18:06:02.464Z,100621.62
2023-03-29T18:09:05.717Z,100622.28
2023-03-29T18:12:09.530Z,100631.78
2023-03-29T18:15:12.739Z,100636.28
2023-03-29T18:18:16.518Z,100632.53
2023-03-29T18:21:21.115Z,100634.06
2023-03-29T18:24:24.649Z,100635.59
2023-03-29T18:27:29.701Z,100636.44
2023-03-29T18:30:36.119Z,100641.69
2023-03-29T18:33:40.089Z,100645.34
2023-03-29T18:36:43.890Z,100640.75
2023-03-29T18:39:48.720Z,100632.41
2023-03-29T18:42:52.383Z,100636.91
2023-03-29T18:45:55.153Z,100645.38
2023-03-29T18:49:03.307Z,100645.66
2023-03-29T18:52:06.490Z,100633.44
2023-03-29T18:55:10.455Z,100641.81
2023-03-29T18:58:15.495Z,100633.44
2023-03-29T19:01:19.148Z,100638.22
2023-03-29T19:04:22.335Z,100640.50
2023-03-29T19:07:28.980Z,100646.97
2023-03-29T19:10:38.506Z,100650.81
2023-03-29T19:13:45.762Z,100655.78
2023-03-29T19:16:48.436Z,100647.44
2023-03-29T19:19:51.996Z,100646.13
2023-03-29T19:22:58.324Z,100645.56
2023-03-29T19:26:03.515Z,100642.62
2023-03-29T19:29:06.846Z,100639.16
2023-03-29T19:32:09.968Z,100643.44
2023-03-29T19:35:13.323Z,100649.22
2023-03-29T19:38:17.185Z,100646.09
2023-03-29T19:41:20.279Z,100650.63
2023-03-29T19:44:23.656Z,100654.19
2023-03-29T19:47:28.216Z,100654.00
2023-03-29T19:50:32.096Z,100650.53
2023-03-29T19:53:38.440Z,100643.56
2023-03-29T19:56:42.933Z,100649.22
2023-03-29T19:59:46.439Z,100648.25
2023-03-29T20:02:51.778Z,100639.69
2023-03-29T20:05:56.580Z,100639.50
2023-03-29T20:08:59.193Z,100643.59
2023-03-29T20:12:02.085Z,100639.91
2023-03-29T20:15:05.120Z,100635.28
2023-03-29T20:18:08.041Z,100635.56
2023-03-29T20:21:16.973Z,100632.38
2023-03-29T20:24:20.224Z,100628.94
2023-03-29T20:27:23.601Z,100628.94
2023-03-29T20:30:26.936Z,100634.53
2023-03-29T20:33:29.710Z,100628.94
2023-03-29T20:36:35.819Z,100622.66
2023-03-29T20:39:38.507Z,100615.97
2023-03-29T20:42:41.729Z,100620.97
2023-03-29T20:45:53.898Z,100624.31
2023-03-29T20:48:57.381Z,100628.09
2023-03-29T20:52:03.407Z,100627.69
2023-03-29T20:55:06.693Z,100617.69
2023-03-29T20:58:09.601Z,100616.47
2023-03-29T21:01:14.347Z,100618.19
2023-03-29T21:04:18.191Z,100614.03
2023-03-29T21:07:21.793Z,100618.94
2023-03-29T21:10:26.357Z,100611.06
2023-03-29T21:13:35.747Z,100613.09
2023-03-29T21:16:42.344Z,100615.97
2023-03-29T21:19:45.580Z,100611.06
2023-03-29T21:22:48.126Z,100609.72
2023-03-29T21:25:51.088Z,100611.00
2023-03-29T21:28:53.802Z,100610.91
2023-03-29T21:31:56.820Z,100609.50
2023-03-29T21:34:59.514Z,100607.03
2023-03-29T21:38:02.368Z,100605.75
2023-03-29T21:41:05.521Z,100598.47
2023-03-29T21:44:09.113Z,100597.53
2023-03-29T21:47:11.693Z,100594.06
2023-03-29T21:50:15.084Z,100604.47
2023-03-29T21:53:18.422Z,100604.66
2023-03-29T21:56:22.487Z,100600.94
2023-03-29T21:59:25.316Z,100599.66
2023-03-29T22:02:28.289Z,100591.19
2023-03-29T22:05:31.223Z,100589.75
2023-03-29T22:08:34.454Z,100592.13
2023-03-29T22:11:39.964Z,100592.97
2023-03-29T22:14:42.454Z,100601.25
2023-03-29T22:17:45.612Z,100597.53
2023-03-29T22:20:48.451Z,100596.78
2023-03-29T22:23:54.096Z,100593.97
2023-03-29T22:26:56.621Z,100599.37
2023-03-29T22:29:59.546Z,100598.22
2023-03-29T22:33:02.194Z,100596.84
2023-03-29T22:36:15.652Z,100600.16
2023-03-29T22:39:18.508Z,100603.56
2023-03-29T22:42:21.774Z,100602.78
2023-03-29T22:45:24.336Z,100588.78
2023-03-29T22:48:27.177Z,100600.47
2023-03-29T22:51:30.013Z,100599.84
2023-03-29T22:54:32.960Z,100619.19
2023-03-29T22:57:35.532Z,100607.13
2023-03-29T23:00:38.476Z,100612.59
2023-03-29T23:03:41.721Z,100610.47
2023-03-29T23:06:44.916Z,100605.69
2023-03-29T23:09:47.495Z,100600.19
2023-03-29T23:12:50.559Z,100597.22
2023-03-29T23:15:55.187Z,100597.00
2023-03-29T23:18:58.431Z,100604.88
2023-03-29T23:22:01.262Z,100603.94
2023-03-29T23:25:04.534Z,100598.62
2023-03-29T23:28:07.041Z,100601.62
2023-03-29T23:31:12.995Z,100593.09
2023-03-29T23:34:15.916Z,100595.84
2023-03-29T23:37:18.796Z,100590.00
2023-03-29T23:40:21.974Z,100597.09
2023-03-29T23:43:28.411Z,100597.69
2023-03-29T23:46:32.447Z,100590.31
2023-03-29T23:49:36.250Z,100591.88
2023-03-29T23:52:40.650Z,100596.94
2023-03-29T23:55:43.551Z,100592.47
2023-03-29T23:58:46.180Z,100593.50
